createdAt,value
2022-08-17T00:00:43.601Z,0.00
2022-08-17T00:01:51.313Z,0.00
2022-08-17T00:02:42.794Z,0.00
2022-08-17T00:03:34.124Z,0.00
2022-08-17T00:04:33.096Z,0.00
2022-08-17T00:05:33.089Z,0.00
2022-08-17T00:06:33.071Z,0.00
2022-08-17T00:07:33.062Z,0.00
2022-08-17T00:08:33.072Z,0.00
2022-08-17T00:09:33.053Z,0.00
2022-08-17T00:10:33.038Z,0.00
2022-08-17T00:11:33.016Z,0.00
2022-08-17T00:12:40.911Z,0.00
2022-08-17T00:13:34.006Z,0.00
2022-08-17T00:14:32.985Z,0.00
2022-08-17T00:15:32.995Z,0.00
2022-08-17T00:16:55.611Z,0.00
2022-08-17T00:17:33.946Z,0.00
2022-08-17T00:19:01.133Z,0.00
2022-08-17T00:19:33.939Z,0.00
2022-08-17T00:20:34.935Z,0.00
2022-08-17T00:22:28.600Z,0.00
2022-08-17T00:22:36.366Z,0.00
2022-08-17T00:23:32.903Z,0.00
2022-08-17T00:24:32.873Z,0.00
2022-08-17T00:25:32.859Z,0.00
2022-08-17T00:26:43.701Z,0.00
2022-08-17T00:27:33.844Z,0.00
2022-08-17T00:28:33.346Z,0.00
2022-08-17T00:29:32.825Z,0.00
2022-08-17T00:30:52.850Z,0.00
2022-08-17T00:31:33.816Z,0.00
2022-08-17T00:33:22.894Z,0.00
2022-08-17T00:33:33.808Z,0.00
2022-08-17T00:34:32.781Z,0.00
2022-08-17T00:35:32.745Z,0.00
2022-08-17T00:36:32.739Z,0.00
2022-08-17T00:37:32.725Z,0.00
2022-08-17T00:38:32.714Z,0.00
2022-08-17T00:39:32.827Z,0.00
2022-08-17T00:40:40.592Z,0.00
2022-08-17T00:41:33.678Z,0.00
2022-08-17T00:42:32.676Z,0.00
2022-08-17T00:43:32.669Z,0.00
2022-08-17T00:44:32.646Z,0.00
2022-08-17T00:45:32.656Z,0.00
2022-08-17T00:46:32.628Z,0.00
2022-08-17T00:47:32.611Z,0.00
2022-08-17T00:48:32.607Z,0.00
2022-08-17T00:49:32.605Z,0.00
2022-08-17T00:50:32.588Z,0.00
2022-08-17T00:51:32.570Z,0.00
2022-08-17T00:52:32.557Z,0.00
2022-08-17T00:53:32.549Z,0.00
2022-08-17T00:54:32.536Z,0.00
2022-08-17T00:55:32.545Z,0.00
2022-08-17T00:56:32.515Z,0.00
2022-08-17T00:57:32.505Z,0.00
2022-08-17T00:58:36.162Z,0.00
2022-08-17T00:59:32.482Z,0.00
2022-08-17T01:00:32.530Z,0.00
2022-08-17T01:01:32.511Z,0.00
2022-08-17T01:02:34.365Z,0.00
2022-08-17T01:03:33.475Z,0.00
2022-08-17T01:04:32.429Z,0.00
2022-08-17T01:05:32.423Z,0.00
2022-08-17T01:06:32.404Z,0.00
2022-08-17T01:07:32.395Z,0.00
2022-08-17T01:08:33.381Z,0.00
2022-08-17T01:09:32.368Z,0.00
2022-08-17T01:10:57.116Z,0.00
2022-08-17T01:11:33.362Z,0.00
2022-08-17T01:12:32.334Z,0.00
2022-08-17T01:13:36.726Z,0.00
2022-08-17T01:14:33.319Z,0.00
2022-08-17T01:15:32.305Z,0.00
2022-08-17T01:16:32.290Z,0.00
2022-08-17T01:17:32.281Z,0.00
2022-08-17T01:18:32.275Z,0.00
2022-08-17T01:19:32.250Z,0.00
2022-08-17T01:20:32.260Z,0.00
2022-08-17T01:21:33.232Z,0.00
2022-08-17T01:22:32.220Z,0.00
2022-08-17T01:23:32.222Z,0.00
2022-08-17T01:24:33.752Z,0.00
2022-08-17T01:25:32.197Z,0.00
2022-08-17T01:26:32.174Z,0.00
2022-08-17T01:27:32.165Z,0.00
2022-08-17T01:28:36.401Z,0.00
2022-08-17T01:29:33.141Z,0.00
2022-08-17T01:30:57.013Z,0.00
2022-08-17T01:31:33.118Z,0.00
2022-08-17T01:32:32.115Z,0.00
2022-08-17T01:33:32.099Z,0.00
2022-08-17T01:34:42.716Z,0.00
2022-08-17T01:35:33.084Z,0.00
2022-08-17T01:36:32.074Z,0.00
2022-08-17T01:37:32.052Z,0.00
2022-08-17T01:38:32.104Z,0.00
2022-08-17T01:39:32.084Z,0.00
2022-08-17T01:40:32.035Z,0.00
2022-08-17T01:41:32.006Z,0.00
2022-08-17T01:42:31.994Z,0.00
2022-08-17T01:43:31.984Z,0.00
2022-08-17T01:44:31.993Z,0.00
2022-08-17T01:45:31.957Z,0.00
2022-08-17T01:46:31.959Z,0.00
2022-08-17T01:47:31.937Z,0.00
2022-08-17T01:48:31.926Z,0.00
2022-08-17T01:49:31.912Z,0.00
2022-08-17T01:50:31.918Z,0.00
2022-08-17T01:51:31.895Z,0.00
2022-08-17T01:52:31.896Z,0.00
2022-08-17T01:53:31.873Z,0.00
2022-08-17T01:54:31.864Z,0.00
2022-08-17T01:55:31.861Z,0.00
2022-08-17T01:56:31.845Z,0.00
2022-08-17T01:57:31.821Z,0.00
2022-08-17T01:58:31.841Z,0.00
2022-08-17T01:59:31.803Z,0.00
2022-08-17T02:00:46.778Z,0.00
2022-08-17T02:01:32.875Z,0.00
2022-08-17T02:02:31.772Z,0.00
2022-08-17T02:03:31.767Z,0.00
2022-08-17T02:04:31.746Z,0.00
2022-08-17T02:05:31.753Z,0.00
2022-08-17T02:06:45.155Z,0.00
2022-08-17T02:07:32.707Z,0.00
2022-08-17T02:08:38.104Z,0.00
2022-08-17T02:09:32.698Z,0.00
2022-08-17T02:10:33.970Z,0.00
2022-08-17T02:11:31.704Z,0.00
2022-08-17T02:12:38.300Z,0.00
2022-08-17T02:13:32.642Z,0.00
2022-08-17T02:14:31.636Z,0.00
2022-08-17T02:15:31.639Z,0.00
2022-08-17T02:16:37.575Z,0.00
2022-08-17T02:17:32.620Z,0.00
2022-08-17T02:18:31.583Z,0.00
2022-08-17T02:19:31.576Z,0.00
2022-08-17T02:20:41.850Z,0.00
2022-08-17T02:21:32.551Z,0.00
2022-08-17T02:22:31.558Z,0.00
2022-08-17T02:23:31.538Z,0.00
2022-08-17T02:25:01.188Z,0.00
2022-08-17T02:25:32.518Z,0.00
2022-08-17T02:26:31.518Z,0.00
2022-08-17T02:27:31.517Z,0.00
2022-08-17T02:28:31.479Z,0.00
2022-08-17T02:29:31.463Z,0.00
2022-08-17T02:30:50.199Z,0.00
2022-08-17T02:31:32.458Z,0.00
2022-08-17T02:32:31.442Z,0.00
2022-08-17T02:33:41.667Z,0.00
2022-08-17T02:34:32.413Z,0.00
2022-08-17T02:35:31.392Z,0.00
2022-08-17T02:36:31.396Z,0.00
2022-08-17T02:37:31.373Z,0.00
2022-08-17T02:38:31.392Z,0.00
2022-08-17T02:39:31.383Z,0.00
2022-08-17T02:40:35.987Z,0.00
2022-08-17T02:41:32.341Z,0.00
2022-08-17T02:42:31.322Z,0.00
2022-08-17T02:43:31.320Z,0.00
2022-08-17T02:44:39.045Z,0.00
2022-08-17T02:45:32.285Z,0.00
2022-08-17T02:46:31.284Z,0.00
2022-08-17T02:47:31.281Z,0.00
2022-08-17T02:48:32.058Z,0.00
2022-08-17T02:49:31.254Z,0.00
2022-08-17T02:50:31.229Z,0.00
2022-08-17T02:51:31.214Z,0.00
2022-08-17T02:52:53.520Z,0.00
2022-08-17T02:53:35.987Z,0.00
2022-08-17T02:54:39.653Z,0.00
2022-08-17T02:55:32.165Z,0.00
2022-08-17T02:56:31.167Z,0.00
2022-08-17T02:57:31.163Z,0.00
2022-08-17T02:58:34.929Z,0.00
2022-08-17T02:59:31.142Z,0.00
2022-08-17T03:00:31.123Z,0.00
2022-08-17T03:01:31.166Z,0.00
2022-08-17T03:02:31.106Z,0.00
2022-08-17T03:03:31.086Z,0.00
2022-08-17T03:04:31.070Z,0.00
2022-08-17T03:05:31.078Z,0.00
2022-08-17T03:06:31.059Z,0.00
2022-08-17T03:07:31.056Z,0.00
2022-08-17T03:08:31.030Z,0.00
2022-08-17T03:09:31.011Z,0.00
2022-08-17T03:10:31.004Z,0.00
2022-08-17T03:11:30.991Z,0.00
2022-08-17T03:12:30.985Z,0.00
2022-08-17T03:13:31.019Z,0.00
2022-08-17T03:14:30.962Z,0.00
2022-08-17T03:15:30.944Z,0.00
2022-08-17T03:16:30.942Z,0.00
2022-08-17T03:17:30.926Z,0.00
2022-08-17T03:18:30.938Z,0.00
2022-08-17T03:19:30.901Z,0.00
2022-08-17T03:20:30.895Z,0.00
2022-08-17T03:21:30.877Z,0.00
2022-08-17T03:22:36.828Z,0.00
2022-08-17T03:23:31.889Z,0.00
2022-08-17T03:24:30.849Z,0.00
2022-08-17T03:25:30.835Z,0.00
2022-08-17T03:26:30.823Z,0.00
2022-08-17T03:27:30.817Z,0.00
2022-08-17T03:28:31.272Z,0.00
2022-08-17T03:29:30.794Z,0.00
2022-08-17T03:30:30.781Z,0.00
2022-08-17T03:31:30.766Z,0.00
2022-08-17T03:32:30.760Z,0.00
2022-08-17T03:33:30.755Z,0.00
2022-08-17T03:34:30.742Z,0.00
2022-08-17T03:35:30.732Z,0.00
2022-08-17T03:36:30.715Z,0.00
2022-08-17T03:37:31.704Z,0.00
2022-08-17T03:38:39.383Z,0.00
2022-08-17T03:39:31.773Z,0.00
2022-08-17T03:40:55.920Z,0.00
2022-08-17T03:41:31.651Z,0.00
2022-08-17T03:42:31.508Z,0.00
2022-08-17T03:43:30.631Z,0.00
2022-08-17T03:44:30.635Z,0.00
2022-08-17T03:45:30.625Z,0.00
2022-08-17T03:46:34.229Z,0.00
2022-08-17T03:47:30.587Z,0.00
2022-08-17T03:48:30.581Z,0.00
2022-08-17T03:49:30.561Z,4.00
2022-08-17T03:50:30.571Z,0.00
2022-08-17T03:51:33.383Z,0.00
2022-08-17T03:52:30.539Z,4.00
2022-08-17T03:53:30.517Z,4.00
2022-08-17T03:54:30.509Z,4.00
2022-08-17T03:55:36.318Z,4.00
2022-08-17T03:56:31.506Z,0.00
2022-08-17T03:57:30.479Z,0.00
2022-08-17T03:58:30.468Z,4.00
2022-08-17T03:59:30.455Z,4.00
2022-08-17T04:00:30.451Z,4.00
2022-08-17T04:01:30.493Z,4.00
2022-08-17T04:02:30.426Z,4.00
2022-08-17T04:03:30.410Z,4.00
2022-08-17T04:04:30.394Z,4.00
2022-08-17T04:05:30.380Z,8.00
2022-08-17T04:06:30.391Z,12.00
2022-08-17T04:07:30.367Z,8.00
2022-08-17T04:08:30.356Z,8.00
2022-08-17T04:09:30.346Z,8.00
2022-08-17T04:10:30.332Z,8.00
2022-08-17T04:11:30.314Z,12.00
2022-08-17T04:12:30.343Z,16.00
2022-08-17T04:13:30.299Z,16.00
2022-08-17T04:14:30.287Z,16.00
2022-08-17T04:15:30.274Z,16.00
2022-08-17T04:16:30.267Z,12.00
2022-08-17T04:17:30.249Z,20.00
2022-08-17T04:18:30.256Z,24.00
2022-08-17T04:19:30.226Z,28.00
2022-08-17T04:20:30.221Z,32.00
2022-08-17T04:21:30.200Z,28.00
2022-08-17T04:22:34.226Z,24.00
2022-08-17T04:23:30.190Z,24.00
2022-08-17T04:24:30.168Z,28.00
2022-08-17T04:25:30.162Z,28.00
2022-08-17T04:26:53.261Z,36.00
2022-08-17T04:27:31.158Z,40.00
2022-08-17T04:28:30.144Z,36.00
2022-08-17T04:29:30.492Z,36.00
2022-08-17T04:30:31.106Z,32.00
2022-08-17T04:31:30.095Z,36.00
2022-08-17T04:33:02.896Z,40.00
2022-08-17T04:33:31.096Z,48.00
2022-08-17T04:34:30.063Z,52.00
2022-08-17T04:35:30.043Z,48.00
2022-08-17T04:36:30.036Z,44.00
2022-08-17T04:37:30.035Z,44.00
2022-08-17T04:38:30.016Z,44.00
2022-08-17T04:39:30.097Z,48.00
2022-08-17T04:40:30.042Z,56.00
2022-08-17T04:41:29.980Z,60.00
2022-08-17T04:42:29.969Z,60.00
2022-08-17T04:43:29.968Z,60.00
2022-08-17T04:44:36.972Z,56.00
2022-08-17T04:45:31.999Z,56.00
2022-08-17T04:46:29.921Z,64.00
2022-08-17T04:47:29.919Z,68.00
2022-08-17T04:48:36.550Z,80.00
2022-08-17T04:49:30.903Z,84.00
2022-08-17T04:50:29.878Z,72.00
2022-08-17T04:51:29.883Z,72.00
2022-08-17T04:52:43.280Z,72.00
2022-08-17T04:53:30.851Z,76.00
2022-08-17T04:54:29.833Z,84.00
2022-08-17T04:55:29.824Z,92.00
2022-08-17T04:56:29.827Z,100.00
2022-08-17T04:57:29.808Z,92.00
2022-08-17T04:58:30.790Z,84.00
2022-08-17T04:59:29.784Z,80.00
2022-08-17T05:00:29.769Z,80.00
2022-08-17T05:01:29.814Z,84.00
2022-08-17T05:02:29.746Z,96.00
2022-08-17T05:03:29.744Z,104.00
2022-08-17T05:04:34.312Z,100.00
2022-08-17T05:05:31.198Z,96.00
2022-08-17T05:06:29.712Z,96.00
2022-08-17T05:07:31.695Z,92.00
2022-08-17T05:08:29.681Z,100.00
2022-08-17T05:09:29.712Z,112.00
2022-08-17T05:10:29.652Z,124.00
2022-08-17T05:11:29.643Z,128.00
2022-08-17T05:12:29.636Z,116.00
2022-08-17T05:13:29.638Z,108.00
2022-08-17T05:14:32.862Z,100.00
2022-08-17T05:15:29.602Z,104.00
2022-08-17T05:16:29.597Z,120.00
2022-08-17T05:17:29.585Z,136.00
2022-08-17T05:18:29.596Z,152.00
2022-08-17T05:19:29.557Z,152.00
2022-08-17T05:20:29.541Z,156.00
2022-08-17T05:21:29.539Z,152.00
2022-08-17T05:22:29.523Z,156.00
2022-08-17T05:23:39.126Z,184.00
2022-08-17T05:24:43.178Z,212.00
2022-08-17T05:25:32.766Z,228.00
2022-08-17T05:26:29.577Z,232.00
2022-08-17T05:27:29.814Z,220.00
2022-08-17T05:28:30.468Z,224.00
2022-08-17T05:29:35.240Z,208.00
2022-08-17T05:30:30.432Z,212.00
2022-08-17T05:31:29.575Z,232.00
2022-08-17T05:32:39.626Z,248.00
2022-08-17T05:33:30.404Z,268.00
2022-08-17T05:34:29.390Z,268.00
2022-08-17T05:35:29.393Z,260.00
2022-08-17T05:36:43.349Z,240.00
2022-08-17T05:37:30.354Z,236.00
2022-08-17T05:38:29.350Z,280.00
2022-08-17T05:39:29.403Z,308.00
2022-08-17T05:40:32.634Z,336.00
2022-08-17T05:41:29.314Z,332.00
2022-08-17T05:42:29.299Z,352.00
2022-08-17T05:43:29.298Z,328.00
2022-08-17T05:44:29.291Z,336.00
2022-08-17T05:45:54.416Z,388.00
2022-08-17T05:46:30.251Z,404.00
2022-08-17T05:47:29.242Z,432.00
2022-08-17T05:48:39.479Z,476.00
2022-08-17T05:49:30.229Z,404.00
2022-08-17T05:50:29.892Z,380.00
2022-08-17T05:51:29.198Z,424.00
2022-08-17T05:52:29.200Z,468.00
2022-08-17T05:53:29.176Z,504.00
2022-08-17T05:54:29.163Z,528.00
2022-08-17T05:55:29.174Z,552.00
2022-08-17T05:56:30.018Z,484.00
2022-08-17T05:57:29.164Z,508.00
2022-08-17T05:58:29.141Z,564.00
2022-08-17T05:59:29.107Z,648.00
2022-08-17T06:00:30.551Z,600.00
2022-08-17T06:01:29.222Z,588.00
2022-08-17T06:02:29.074Z,604.00
2022-08-17T06:03:29.079Z,596.00
2022-08-17T06:04:29.064Z,752.00
2022-08-17T06:05:29.047Z,676.00
2022-08-17T06:06:31.459Z,684.00
2022-08-17T06:07:29.021Z,676.00
2022-08-17T06:08:29.020Z,720.00
2022-08-17T06:09:33.469Z,736.00
2022-08-17T06:10:29.080Z,840.00
2022-08-17T06:11:28.993Z,872.00
2022-08-17T06:12:28.964Z,1228.00
2022-08-17T06:13:28.975Z,2008.00
2022-08-17T06:14:28.937Z,2268.00
2022-08-17T06:15:28.933Z,2488.00
2022-08-17T06:16:34.455Z,2156.00
2022-08-17T06:17:29.911Z,1828.00
2022-08-17T06:18:28.889Z,1716.00
2022-08-17T06:19:28.893Z,2112.00
2022-08-17T06:20:28.873Z,2500.00
2022-08-17T06:21:32.172Z,3352.00
2022-08-17T06:22:28.847Z,4636.00
2022-08-17T06:23:28.838Z,4972.00
2022-08-17T06:24:28.836Z,4100.00
2022-08-17T06:25:28.835Z,3912.00
2022-08-17T06:26:30.402Z,3764.00
2022-08-17T06:27:29.789Z,4044.00
2022-08-17T06:28:28.786Z,4008.00
2022-08-17T06:29:28.766Z,4024.00
2022-08-17T06:30:28.766Z,4884.00
2022-08-17T06:31:29.744Z,6408.00
2022-08-17T06:32:28.733Z,8316.00
2022-08-17T06:33:28.739Z,8496.00
2022-08-17T06:34:28.711Z,8872.00
2022-08-17T06:35:31.960Z,10132.00
2022-08-17T06:36:28.690Z,10632.00
2022-08-17T06:37:28.681Z,9652.00
2022-08-17T06:38:37.523Z,12832.00
2022-08-17T06:39:29.746Z,12292.00
2022-08-17T06:40:28.654Z,9424.00
2022-08-17T06:41:28.639Z,6824.00
2022-08-17T06:42:54.716Z,6516.00
2022-08-17T06:43:29.614Z,5100.00
2022-08-17T06:44:42.335Z,3304.00
2022-08-17T06:45:29.617Z,3020.00
2022-08-17T06:46:28.578Z,3696.00
2022-08-17T06:47:29.289Z,3304.00
2022-08-17T06:48:28.557Z,3912.00
2022-08-17T06:49:28.559Z,4204.00
2022-08-17T06:50:28.540Z,4780.00
2022-08-17T06:51:28.544Z,4980.00
2022-08-17T06:52:42.198Z,5872.00
2022-08-17T06:53:29.510Z,5020.00
2022-08-17T06:54:28.489Z,6448.00
2022-08-17T06:55:28.477Z,6860.00
2022-08-17T06:56:54.855Z,7380.00
2022-08-17T06:57:29.457Z,7544.00
2022-08-17T06:58:29.558Z,7504.00
2022-08-17T06:59:34.776Z,7508.00
2022-08-17T07:00:29.511Z,7376.00
2022-08-17T07:01:28.500Z,6988.00
2022-08-17T07:02:28.893Z,7060.00
2022-08-17T07:03:29.404Z,7816.00
2022-08-17T07:04:28.379Z,10620.00
2022-08-17T07:05:28.370Z,13648.00
2022-08-17T07:06:28.368Z,14880.00
2022-08-17T07:07:28.343Z,13100.00
2022-08-17T07:08:32.055Z,12864.00
2022-08-17T07:09:29.324Z,10416.00
2022-08-17T07:10:28.307Z,9720.00
2022-08-17T07:11:28.304Z,8936.00
2022-08-17T07:12:28.300Z,8904.00
2022-08-17T07:13:28.290Z,7840.00
2022-08-17T07:14:28.266Z,8232.00
2022-08-17T07:15:28.255Z,6168.00
2022-08-17T07:16:28.242Z,5700.00
2022-08-17T07:17:46.779Z,8700.00
2022-08-17T07:18:29.242Z,9112.00
2022-08-17T07:19:28.210Z,5952.00
2022-08-17T07:20:28.199Z,4936.00
2022-08-17T07:21:28.188Z,4700.00
2022-08-17T07:22:28.172Z,4304.00
2022-08-17T07:23:28.178Z,4144.00
2022-08-17T07:24:30.132Z,4080.00
2022-08-17T07:25:28.145Z,4056.00
2022-08-17T07:26:28.129Z,4180.00
2022-08-17T07:27:28.123Z,4504.00
2022-08-17T07:28:28.129Z,4384.00
2022-08-17T07:29:28.108Z,4296.00
2022-08-17T07:30:28.086Z,4324.00
2022-08-17T07:31:28.078Z,4120.00
2022-08-17T07:32:28.060Z,3972.00
2022-08-17T07:33:28.055Z,3672.00
2022-08-17T07:34:29.209Z,3612.00
2022-08-17T07:35:31.284Z,3520.00
2022-08-17T07:36:30.195Z,3428.00
2022-08-17T07:37:28.013Z,3576.00
2022-08-17T07:38:28.021Z,3256.00
2022-08-17T07:39:28.189Z,3360.00
2022-08-17T07:40:28.130Z,3344.00
2022-08-17T07:41:52.892Z,3368.00
2022-08-17T07:42:28.952Z,3448.00
2022-08-17T07:43:29.615Z,3532.00
2022-08-17T07:44:27.963Z,3656.00
2022-08-17T07:45:27.926Z,3704.00
2022-08-17T07:46:27.918Z,3576.00
2022-08-17T07:47:27.903Z,3660.00
2022-08-17T07:48:27.938Z,3516.00
2022-08-17T07:49:27.879Z,3416.00
2022-08-17T07:50:27.862Z,3376.00
2022-08-17T07:51:27.861Z,3088.00
2022-08-17T07:52:50.948Z,3028.00
2022-08-17T07:53:28.859Z,2772.00
2022-08-17T07:54:27.821Z,2524.00
2022-08-17T07:55:27.812Z,2468.00
2022-08-17T07:56:27.796Z,2236.00
2022-08-17T07:57:30.103Z,2188.00
2022-08-17T07:58:27.804Z,2100.00
2022-08-17T07:59:33.308Z,1856.00
2022-08-17T08:00:32.192Z,1860.00
2022-08-17T08:01:41.018Z,1704.00
2022-08-17T08:02:29.539Z,1660.00
2022-08-17T08:03:28.739Z,1692.00
2022-08-17T08:04:59.256Z,1648.00
2022-08-17T08:06:41.609Z,1548.00
2022-08-17T08:07:41.598Z,1672.00
2022-08-17T08:08:41.597Z,1628.00
2022-08-17T08:09:41.586Z,1672.00
2022-08-17T08:10:42.733Z,1700.00
2022-08-17T08:11:44.309Z,1608.00
2022-08-17T08:12:41.543Z,1652.00
2022-08-17T08:13:41.540Z,1536.00
2022-08-17T08:14:41.520Z,1476.00
2022-08-17T08:15:45.256Z,1504.00
2022-08-17T08:16:42.505Z,1436.00
2022-08-17T08:17:41.510Z,1452.00
2022-08-17T08:18:55.361Z,1460.00
2022-08-17T08:19:42.465Z,1372.00
2022-08-17T08:20:53.305Z,1464.00
2022-08-17T08:21:42.452Z,1432.00
2022-08-17T08:22:41.983Z,1436.00
2022-08-17T08:23:41.430Z,1408.00
2022-08-17T08:24:41.415Z,1316.00
2022-08-17T08:25:41.407Z,1304.00
2022-08-17T08:26:41.403Z,1216.00
2022-08-17T08:27:41.372Z,1244.00
2022-08-17T08:28:41.397Z,1268.00
2022-08-17T08:29:41.350Z,1180.00
2022-08-17T08:30:41.362Z,1280.00
2022-08-17T08:31:42.458Z,1196.00
2022-08-17T08:32:41.329Z,1220.00
2022-08-17T08:33:41.311Z,1164.00
2022-08-17T08:34:45.031Z,1108.00
2022-08-17T08:35:42.296Z,1240.00
2022-08-17T08:37:15.863Z,1184.00
2022-08-17T08:37:43.369Z,1144.00
2022-08-17T08:38:41.271Z,1112.00
2022-08-17T08:39:41.326Z,1028.00
2022-08-17T08:40:41.253Z,1088.00
2022-08-17T08:41:41.226Z,984.00
2022-08-17T08:42:41.217Z,1000.00
2022-08-17T08:43:41.202Z,996.00
2022-08-17T08:45:00.351Z,968.00
2022-08-17T08:45:42.176Z,1060.00
2022-08-17T08:46:41.169Z,960.00
2022-08-17T08:47:41.155Z,1076.00
2022-08-17T08:48:56.653Z,1072.00
2022-08-17T08:50:05.395Z,1068.00
2022-08-17T08:50:42.124Z,1140.00
2022-08-17T08:51:41.123Z,1056.00
2022-08-17T08:52:41.107Z,1116.00
2022-08-17T08:53:41.095Z,1112.00
2022-08-17T08:54:41.105Z,1028.00
2022-08-17T08:55:41.071Z,1064.00
2022-08-17T08:56:53.779Z,1048.00
2022-08-17T08:57:42.062Z,956.00
2022-08-17T08:58:41.963Z,1044.00
2022-08-17T08:59:42.136Z,1028.00
2022-08-17T09:00:41.022Z,1040.00
2022-08-17T09:01:41.060Z,1108.00
2022-08-17T09:02:41.002Z,1056.00
2022-08-17T09:03:52.177Z,1112.00
2022-08-17T09:05:10.733Z,1184.00
2022-08-17T09:05:41.980Z,1116.00
2022-08-17T09:06:40.959Z,1200.00
2022-08-17T09:07:40.969Z,1272.00
2022-08-17T09:08:40.937Z,1264.00
2022-08-17T09:09:40.921Z,1308.00
2022-08-17T09:10:40.926Z,1184.00
2022-08-17T09:12:02.498Z,1344.00
2022-08-17T09:12:41.898Z,1448.00
2022-08-17T09:13:40.870Z,1420.00
2022-08-17T09:14:45.439Z,1556.00
2022-08-17T09:15:41.871Z,1508.00
2022-08-17T09:16:40.841Z,1636.00
2022-08-17T09:17:40.829Z,1768.00
2022-08-17T09:18:59.866Z,1788.00
2022-08-17T09:19:41.808Z,1900.00
2022-08-17T09:20:40.808Z,2172.00
2022-08-17T09:21:48.015Z,1944.00
2022-08-17T09:22:41.785Z,2104.00
2022-08-17T09:23:40.777Z,2064.00
2022-08-17T09:24:40.760Z,2120.00
2022-08-17T09:25:40.754Z,2244.00
2022-08-17T09:26:40.736Z,1960.00
2022-08-17T09:27:40.719Z,2204.00
2022-08-17T09:28:40.712Z,2236.00
2022-08-17T09:29:40.697Z,2364.00
2022-08-17T09:30:40.704Z,2480.00
2022-08-17T09:31:47.017Z,2416.00
2022-08-17T09:32:41.668Z,2572.00
2022-08-17T09:33:40.654Z,3384.00
2022-08-17T09:34:40.646Z,3896.00
2022-08-17T09:35:40.642Z,4104.00
2022-08-17T09:36:40.643Z,4032.00
2022-08-17T09:37:40.619Z,3876.00
2022-08-17T09:38:40.607Z,3640.00
2022-08-17T09:39:40.764Z,3128.00
2022-08-17T09:40:40.584Z,2880.00
2022-08-17T09:41:49.018Z,2256.00
2022-08-17T09:42:41.566Z,2016.00
2022-08-17T09:43:40.547Z,1952.00
2022-08-17T09:44:40.541Z,2016.00
2022-08-17T09:45:40.552Z,2348.00
2022-08-17T09:46:40.530Z,2452.00
2022-08-17T09:47:40.503Z,2192.00
2022-08-17T09:48:40.498Z,2048.00
2022-08-17T09:49:40.487Z,2260.00
2022-08-17T09:51:03.139Z,2316.00
2022-08-17T09:51:41.468Z,2324.00
2022-08-17T09:52:40.459Z,2256.00
2022-08-17T09:53:40.442Z,2100.00
2022-08-17T09:54:40.903Z,1900.00
2022-08-17T09:55:40.415Z,1588.00
2022-08-17T09:56:45.989Z,1476.00
2022-08-17T09:57:41.405Z,1280.00
2022-08-17T09:58:40.387Z,1324.00
2022-08-17T09:59:40.369Z,1200.00
2022-08-17T10:00:40.408Z,1216.00
2022-08-17T10:01:40.412Z,1116.00
2022-08-17T10:02:40.360Z,1144.00
2022-08-17T10:03:40.331Z,1132.00
2022-08-17T10:04:40.320Z,1076.00
2022-08-17T10:05:40.310Z,1092.00
2022-08-17T10:06:40.303Z,1060.00
2022-08-17T10:07:40.298Z,1140.00
2022-08-17T10:08:40.293Z,1072.00
2022-08-17T10:09:40.274Z,1148.00
2022-08-17T10:10:41.852Z,1096.00
2022-08-17T10:11:45.546Z,1144.00
2022-08-17T10:12:47.153Z,1224.00
2022-08-17T10:13:41.233Z,1164.00
2022-08-17T10:14:44.307Z,1216.00
2022-08-17T10:15:42.581Z,1264.00
2022-08-17T10:16:40.192Z,1232.00
2022-08-17T10:17:40.181Z,1212.00
2022-08-17T10:18:40.191Z,1132.00
2022-08-17T10:19:40.171Z,1128.00
2022-08-17T10:20:40.148Z,1024.00
2022-08-17T10:21:40.231Z,1100.00
2022-08-17T10:22:40.129Z,980.00
2022-08-17T10:23:40.121Z,1016.00
2022-08-17T10:24:40.122Z,968.00
2022-08-17T10:25:55.863Z,968.00
2022-08-17T10:26:55.994Z,976.00
2022-08-17T10:27:41.070Z,896.00
2022-08-17T10:28:40.062Z,956.00
2022-08-17T10:29:44.172Z,888.00
2022-08-17T10:30:41.044Z,908.00
2022-08-17T10:31:40.102Z,880.00
2022-08-17T10:32:40.020Z,848.00
2022-08-17T10:33:40.015Z,920.00
2022-08-17T10:34:41.248Z,820.00
2022-08-17T10:35:39.981Z,860.00
2022-08-17T10:36:39.980Z,828.00
2022-08-17T10:37:39.959Z,800.00
2022-08-17T10:38:39.951Z,872.00
2022-08-17T10:39:51.952Z,776.00
2022-08-17T10:40:40.930Z,828.00
2022-08-17T10:41:40.603Z,788.00
2022-08-17T10:42:39.911Z,784.00
2022-08-17T10:43:39.893Z,856.00
2022-08-17T10:44:41.510Z,780.00
2022-08-17T10:45:39.888Z,852.00
2022-08-17T10:46:39.862Z,824.00
2022-08-17T10:47:54.885Z,816.00
2022-08-17T10:48:40.867Z,864.00
2022-08-17T10:49:39.835Z,788.00
2022-08-17T10:50:39.840Z,844.00
2022-08-17T10:51:39.806Z,800.00
2022-08-17T10:52:39.798Z,788.00
2022-08-17T10:53:40.400Z,876.00
2022-08-17T10:54:39.777Z,832.00
2022-08-17T10:55:39.770Z,860.00
2022-08-17T10:56:39.764Z,844.00
2022-08-17T10:57:39.740Z,848.00
2022-08-17T10:58:39.734Z,932.00
2022-08-17T10:59:39.718Z,908.00
2022-08-17T11:00:39.765Z,948.00
2022-08-17T11:01:39.694Z,1008.00
2022-08-17T11:02:39.699Z,980.00
2022-08-17T11:03:39.689Z,1000.00
2022-08-17T11:04:39.673Z,972.00
2022-08-17T11:05:43.524Z,948.00
2022-08-17T11:06:39.652Z,988.00
2022-08-17T11:07:39.644Z,932.00
2022-08-17T11:08:39.637Z,968.00
2022-08-17T11:09:39.614Z,1012.00
2022-08-17T11:10:39.623Z,912.00
2022-08-17T11:11:39.587Z,1024.00
2022-08-17T11:12:39.581Z,972.00
2022-08-17T11:13:39.574Z,1024.00
2022-08-17T11:14:39.562Z,1088.00
2022-08-17T11:15:39.556Z,996.00
2022-08-17T11:16:39.543Z,1076.00
2022-08-17T11:17:39.528Z,1076.00
2022-08-17T11:18:39.536Z,1052.00
2022-08-17T11:19:39.507Z,1076.00
2022-08-17T11:20:39.493Z,964.00
2022-08-17T11:21:39.491Z,1004.00
2022-08-17T11:22:39.470Z,996.00
2022-08-17T11:23:39.461Z,860.00
2022-08-17T11:24:39.458Z,928.00
2022-08-17T11:25:39.456Z,900.00
2022-08-17T11:26:39.444Z,868.00
2022-08-17T11:27:39.440Z,888.00
2022-08-17T11:28:39.426Z,836.00
2022-08-17T11:29:39.404Z,864.00
2022-08-17T11:30:39.388Z,868.00
2022-08-17T11:31:39.984Z,836.00
2022-08-17T11:32:47.104Z,912.00
2022-08-17T11:33:40.360Z,920.00
2022-08-17T11:34:39.345Z,892.00
2022-08-17T11:35:39.334Z,976.00
2022-08-17T11:36:39.326Z,884.00
2022-08-17T11:37:39.308Z,984.00
2022-08-17T11:38:39.314Z,1000.00
2022-08-17T11:39:39.321Z,1004.00
2022-08-17T11:40:39.280Z,1084.00
2022-08-17T11:41:39.270Z,1040.00
2022-08-17T11:42:39.260Z,1112.00
2022-08-17T11:43:42.714Z,1164.00
2022-08-17T11:44:39.246Z,1104.00
2022-08-17T11:45:39.224Z,1196.00
2022-08-17T11:46:39.211Z,1164.00
2022-08-17T11:47:39.203Z,1184.00
2022-08-17T11:48:39.192Z,1224.00
2022-08-17T11:49:40.053Z,1140.00
2022-08-17T11:50:39.172Z,1172.00
2022-08-17T11:51:39.155Z,1156.00
2022-08-17T11:52:39.154Z,1108.00
2022-08-17T11:53:39.135Z,1152.00
2022-08-17T11:54:39.137Z,1080.00
2022-08-17T11:55:43.131Z,1116.00
2022-08-17T11:56:40.104Z,1112.00
2022-08-17T11:57:39.095Z,1040.00
2022-08-17T11:58:39.086Z,1096.00
2022-08-17T11:59:39.082Z,992.00
2022-08-17T12:00:39.062Z,1016.00
2022-08-17T12:01:39.048Z,968.00
2022-08-17T12:02:39.073Z,944.00
2022-08-17T12:03:39.029Z,1040.00
2022-08-17T12:04:39.150Z,936.00
2022-08-17T12:05:39.007Z,1008.00
2022-08-17T12:06:39.001Z,960.00
2022-08-17T12:07:38.982Z,956.00
2022-08-17T12:08:38.992Z,1028.00
2022-08-17T12:09:38.964Z,924.00
2022-08-17T12:10:38.968Z,1004.00
2022-08-17T12:12:01.542Z,1052.00
2022-08-17T12:12:39.935Z,1008.00
2022-08-17T12:13:39.921Z,1092.00
2022-08-17T12:15:09.089Z,1036.00
2022-08-17T12:15:39.917Z,1048.00
2022-08-17T12:16:38.886Z,1028.00
2022-08-17T12:17:41.271Z,924.00
2022-08-17T12:18:38.870Z,964.00
2022-08-17T12:19:38.861Z,868.00
2022-08-17T12:20:38.856Z,824.00
2022-08-17T12:21:38.843Z,800.00
2022-08-17T12:22:38.836Z,648.00
2022-08-17T12:23:38.810Z,720.00
2022-08-17T12:24:38.802Z,648.00
2022-08-17T12:25:38.808Z,644.00
2022-08-17T12:26:38.779Z,652.00
2022-08-17T12:27:56.823Z,580.00
2022-08-17T12:28:39.764Z,656.00
2022-08-17T12:29:39.326Z,548.00
2022-08-17T12:30:38.754Z,584.00
2022-08-17T12:31:38.735Z,664.00
2022-08-17T12:32:38.739Z,560.00
2022-08-17T12:33:38.708Z,612.00
2022-08-17T12:34:38.709Z,560.00
2022-08-17T12:35:38.682Z,616.00
2022-08-17T12:36:38.682Z,684.00
2022-08-17T12:37:38.664Z,612.00